Time;durP1;ratioP1;P1;durP2;ratioP2;P2;SDS_P1;SDS_P2;PMS_P1;PMS_P2;Temp;Humidity;BMP_temperature;BMP_pressure;BME280_temperature;BME280_humidity;BME280_pressure;Samples;Min_cycle;Max_cycle;Signal;HPM_P1;HPM_P2
2021/11/12 00:17:14;;;;;;;68.90;48.50;;;;;;;-1.06;80.30;100136.85;435014;1312;141974;-63
2021/11/12 00:27:20;;;;;;;71.70;49.40;;;;;;;-0.70;81.04;100133.46;434003;1312;252859;-61
2021/11/12 00:37:32;;;;;;;95.70;59.20;;;;;;;-0.43;81.17;100128.41;434605;1312;142391;-61
2021/11/12 00:47:44;;;;;;;84.60;54.50;;;;;;;-0.05;81.20;100132.30;420798;1311;198929;-61
2021/11/12 00:57:51;;;;;;;80.00;55.90;;;;;;;0.18;81.02;100130.48;432887;1312;141960;-62
2021/11/12 01:07:57;;;;;;;75.50;47.60;;;;;;;0.29;80.44;100133.45;434634;1309;142572;-62
2021/11/12 01:18:03;;;;;;;77.20;53.00;;;;;;;0.57;80.51;100133.58;424741;1311;142193;-61
2021/11/12 01:28:08;;;;;;;66.30;47.20;;;;;;;0.78;80.39;100136.21;433877;1311;142753;-62
2021/11/12 01:38:16;;;;;;;67.00;44.30;;;;;;;0.95;80.16;100127.31;434903;1311;197440;-62
2021/11/12 01:48:33;;;;;;;62.50;43.30;;;;;;;1.05;80.34;100127.02;433160;1309;142308;-62
2021/11/12 01:58:52;;;;;;;65.50;45.30;;;;;;;1.21;80.69;100133.83;434890;1309;142951;-60
2021/11/12 02:08:59;;;;;;;65.80;42.90;;;;;;;1.31;80.86;100135.73;429172;1309;141973;-60
2021/11/12 02:19:09;;;;;;;61.50;40.20;;;;;;;1.39;81.07;100128.00;434431;1312;142917;-62
2021/11/12 02:29:16;;;;;;;59.50;39.40;;;;;;;1.45;81.23;100121.50;432687;1313;142413;-62
2021/11/12 02:39:21;;;;;;;;;;;;;;;1.49;81.57;100122.14;431574;1313;143252;-61
2021/11/12 02:49:27;;;;;;;52.20;35.30;;;;;;;1.56;81.63;100127.16;420109;1312;127519;-61
2021/11/12 02:59:33;;;;;;;61.90;38.50;;;;;;;1.61;81.74;100120.35;432569;1312;141829;-59
2021/11/12 03:09:39;;;;;;;57.90;38.00;;;;;;;1.70;81.80;100120.71;434714;1311;142276;-60
2021/11/12 03:19:46;;;;;;;57.20;37.60;;;;;;;1.76;81.64;100125.08;434532;1311;142207;-61
2021/11/12 05:14:10;;;;;;;41.30;28.60;;;;;;;2.24;81.82;100161.80;435140;1310;143625;-62
2021/11/12 05:45:15;;;;;;;46.00;26.80;;;;;;;2.34;82.27;100177.31;429820;1312;142462;-62
2021/11/12 05:55:21;;;;;;;40.70;29.00;;;;;;;2.39;82.38;100181.02;434837;1312;142230;-62
2021/11/12 06:05:27;;;;;;;41.50;27.50;;;;;;;2.40;82.33;100193.79;434751;1310;141704;-61
2021/11/12 06:15:33;;;;;;;39.50;25.10;;;;;;;2.47;82.54;100199.51;435160;1310;143413;-61
2021/11/12 06:25:39;;;;;;;36.80;25.40;;;;;;;2.53;82.41;100200.77;433966;1312;143335;-61
2021/11/12 06:35:44;;;;;;;38.40;24.80;;;;;;;2.59;82.53;100205.66;434073;1312;143261;-61
2021/11/12 06:56:14;;;;;;;44.00;26.90;;;;;;;2.65;82.64;100213.15;432897;1309;142793;-61
2021/11/12 07:06:21;;;;;;;43.40;29.10;;;;;;;2.62;82.52;100215.80;424546;1311;144544;-61
2021/11/12 07:16:26;;;;;;;46.70;29.20;;;;;;;2.55;82.45;100217.49;430367;1310;141679;-60
2021/11/12 07:26:33;;;;;;;45.10;29.50;;;;;;;2.56;82.61;100215.07;431432;1313;141469;-60
2021/11/12 07:36:41;;;;;;;41.80;27.10;;;;;;;2.54;82.51;100217.00;433319;1311;151136;-62
2021/11/12 07:46:58;;;;;;;37.80;28.70;;;;;;;2.54;82.33;100218.38;434059;1311;142876;-60
2021/11/12 07:57:03;;;;;;;;;;;;;;;2.56;82.48;100225.78;420263;1312;142733;-62
2021/11/12 08:07:10;;;;;;;39.80;27.60;;;;;;;2.53;82.34;100230.33;434317;1313;128247;-62
2021/11/12 08:17:23;;;;;;;38.70;25.60;;;;;;;2.65;82.49;100234.23;434174;1312;142403;-61
2021/11/12 08:38:13;;;;;;;42.10;29.20;;;;;;;2.84;82.36;100234.38;420720;1311;141581;-62
2021/11/12 08:48:23;;;;;;;39.60;24.50;;;;;;;2.85;82.70;100244.01;431747;1312;142749;-61
2021/11/12 08:58:30;;;;;;;40.30;26.70;;;;;;;3.03;82.56;100240.34;434872;1308;143050;-62
2021/11/12 09:08:37;;;;;;;40.00;26.40;;;;;;;3.20;82.55;100236.15;433149;1312;142272;-61
2021/11/12 09:18:45;;;;;;;43.10;29.30;;;;;;;3.28;82.39;100230.60;435033;1312;142801;-62
2021/11/12 09:28:52;;;;;;;44.40;28.00;;;;;;;3.36;82.23;100234.58;433890;1312;142410;-61
2021/11/12 09:38:57;;;;;;;43.70;26.80;;;;;;;3.43;82.28;100232.69;432698;1312;142753;-61
2021/11/12 09:49:04;;;;;;;36.10;24.90;;;;;;;3.46;82.24;100224.98;434647;1311;141917;-62
2021/11/12 09:59:10;;;;;;;41.70;25.00;;;;;;;3.53;82.48;100219.98;435014;1312;143182;-62
2021/11/12 10:09:18;;;;;;;35.40;23.20;;;;;;;3.58;82.42;100216.39;434522;1310;142231;-62
2021/11/12 10:19:25;;;;;;;37.00;25.50;;;;;;;3.73;82.00;100207.01;435051;1310;142685;-62
2021/11/12 10:29:34;;;;;;;39.10;27.60;;;;;;;3.87;82.14;100198.86;433411;1312;143248;-62
2021/11/12 10:39:42;;;;;;;38.20;26.60;;;;;;;3.96;82.08;100193.60;432427;1314;142037;-61
2021/11/12 10:49:49;;;;;;;35.00;23.50;;;;;;;4.05;82.03;100178.79;427088;1312;145284;-61
2021/11/12 11:00:04;;;;;;;35.80;24.40;;;;;;;4.19;82.19;100168.70;433598;1313;141878;-61
2021/11/12 11:10:23;;;;;;;34.80;23.80;;;;;;;4.34;82.00;100162.91;431479;1309;198084;-62
2021/11/12 11:20:33;;;;;;;49.60;28.60;;;;;;;4.51;81.76;100156.52;426988;1312;141479;-61
2021/11/12 11:30:39;;;;;;;39.70;26.40;;;;;;;4.59;81.82;100146.58;424757;1313;143329;-61
2021/11/12 11:40:48;;;;;;;36.00;24.40;;;;;;;4.63;81.60;100130.85;429120;1312;142151;-62
2021/11/12 11:50:57;;;;;;;36.20;23.50;;;;;;;4.71;81.43;100125.73;434113;1312;142969;-62
2021/11/12 12:01:33;;;;;;;34.50;24.90;;;;;;;4.88;81.42;100119.48;433307;1313;142827;-63
2021/11/12 12:11:42;;;;;;;37.50;26.40;;;;;;;4.97;81.22;100112.78;431032;1313;143514;-59
2021/11/12 12:22:09;;;;;;;36.30;25.10;;;;;;;5.05;81.24;100097.06;433748;1314;142473;-62
2021/11/12 13:24:39;;;;;;;47.20;28.30;;;;;;;5.33;81.29;100056.40;430160;1313;143550;-61
2021/11/12 13:34:50;;;;;;;45.90;29.20;;;;;;;5.27;81.39;100049.31;429978;1313;142444;-62
2021/11/12 13:44:56;;;;;;;42.40;28.30;;;;;;;5.32;81.41;100048.28;431600;1313;143347;-61
2021/11/12 13:55:07;;;;;;;47.00;30.80;;;;;;;5.41;81.31;100043.10;433692;1312;142511;-62
2021/11/12 14:05:16;;;;;;;47.60;31.80;;;;;;;5.43;81.28;100046.99;428618;1311;142698;-61
2021/11/12 14:15:27;;;;;;;47.10;31.50;;;;;;;5.33;81.40;100045.62;432217;1312;144786;-62
2021/11/12 14:36:04;;;;;;;38.60;25.40;;;;;;;5.14;81.79;100037.59;433883;1312;142594;-62
2021/11/12 14:46:19;;;;;;;43.20;26.50;;;;;;;5.12;81.84;100041.31;434090;1312;142613;-60
2021/11/12 14:56:30;;;;;;;48.20;30.30;;;;;;;5.12;82.01;100038.36;424892;1311;143435;-60
2021/11/12 15:06:36;;;;;;;48.60;32.00;;;;;;;5.06;82.35;100034.75;434624;1312;141615;-61
2021/11/12 15:16:43;;;;;;;50.60;36.70;;;;;;;5.03;82.66;100039.02;434462;1313;141335;-61
2021/11/12 15:27:10;;;;;;;45.30;32.40;;;;;;;4.97;82.47;100031.24;431251;1313;141701;-61
2021/11/12 15:37:25;;;;;;;40.70;28.00;;;;;;;4.96;82.56;100042.20;434476;1312;141407;-62
2021/11/12 15:47:33;;;;;;;39.10;26.20;;;;;;;4.97;82.64;100044.40;427452;1311;142528;-61
2021/11/12 16:08:06;;;;;;;50.90;30.90;;;;;;;4.96;82.87;100053.81;434640;1311;142084;-61
2021/11/12 16:18:26;;;;;;;54.00;30.50;;;;;;;4.98;83.05;100056.54;429899;1312;335349;-61
2021/11/12 16:28:42;;;;;;;53.70;30.20;;;;;;;4.95;82.98;100055.60;434607;1313;143053;-62
2021/11/12 16:38:49;;;;;;;41.90;27.00;;;;;;;4.90;83.25;100057.64;433518;1311;142953;-60
2021/11/12 16:49:03;;;;;;;45.60;24.80;;;;;;;4.88;83.32;100057.73;433311;1311;141833;-61
2021/11/12 16:59:13;;;;;;;41.60;24.50;;;;;;;4.83;83.47;100059.98;434701;1313;142339;-60
2021/11/12 17:19:57;;;;;;;48.70;27.60;;;;;;;4.79;83.80;100068.59;433134;1311;142752;-61
2021/11/12 21:51:59;;;;;;;23.80;13.10;;;;;;;3.22;86.71;99905.64;430619;1311;142551;-61
2021/11/12 22:02:05;;;;;;;22.40;13.30;;;;;;;3.16;86.80;99910.65;433035;1308;141541;-61
2021/11/12 22:12:12;;;;;;;22.00;13.60;;;;;;;3.13;87.17;99923.54;433908;1312;143041;-61
2021/11/12 22:22:17;;;;;;;20.20;13.00;;;;;;;3.12;87.02;99902.27;434589;1311;141577;-61
2021/11/12 22:32:23;;;;;;;23.60;14.30;;;;;;;3.15;86.90;99911.35;434644;1312;141103;-62
2021/11/12 22:42:29;;;;;;;25.30;15.60;;;;;;;3.15;87.15;99906.16;429008;1312;141868;-61
2021/11/12 22:52:35;;;;;;;26.50;17.00;;;;;;;3.09;87.28;99898.89;427350;1310;151408;-61
2021/11/12 23:02:41;;;;;;;32.30;16.30;;;;;;;3.08;87.45;99891.83;427998;1309;142714;-61
2021/11/12 23:12:47;;;;;;;28.40;14.40;;;;;;;3.04;87.56;99880.34;434786;1311;141842;-61
2021/11/12 23:22:53;;;;;;;28.40;16.40;;;;;;;3.06;87.64;99866.63;433690;1312;142411;-62
2021/11/12 23:32:59;;;;;;;30.00;17.40;;;;;;;3.07;87.68;99849.48;433838;1311;145075;-61
2021/11/12 23:43:05;;;;;;;37.80;19.10;;;;;;;3.11;87.90;99845.21;433043;1311;141834;-61
2021/11/12 23:53:11;;;;;;;35.80;20.10;;;;;;;3.13;87.95;99844.30;433185;1311;142574;-62
